METAR Data
IDs: Format: Raw Decoded Include TAF

Data at: 1951 UTC 18 Oct 2018

KWVI 181853Z AUTO 17005KT 10SM CLR 19/09 A3014 RMK AO2 SLP204 T01890089
KWVI 181753Z AUTO 00000KT 10SM CLR 14/09 A3015 RMK AO2 SLP208 T01440089 10156 20094 50001
KWVI 181714Z AUTO 08003KT 9SM SCT005 13/09 A3016 RMK AO2 T01280094
KWVI 181653Z AUTO 00000KT 7SM OVC005 11/09 A3016 RMK AO2 SLP214 T01110094
KWVI 181553Z AUTO 05003KT 5SM BR OVC003 10/09 A3016 RMK AO2 SLP211 T01000094
KWVI 181505Z AUTO 00000KT 3SM BR OVC002 10/09 A3014 RMK AO2 T01000094
KWVI 181453Z AUTO 00000KT 2 1/2SM BR OVC002 10/09 A3014 RMK AO2 SLP207 T01000094 53010
KWVI 181439Z AUTO 00000KT 2 1/2SM BR OVC002 10/09 A3014 RMK AO2 VIS 1 3/4V3 T01000094
KWVI 181426Z AUTO 00000KT 1 1/2SM BR OVC003 09/09 A3014 RMK AO2 T00940094
KWVI 181402Z AUTO 00000KT 1 1/4SM BR OVC003 09/09 A3013 RMK AO2 T00940094
KWVI 181353Z AUTO 31003KT 3/4SM BR VV002 09/09 A3013 RMK AO2 SLP201 T00940094
KWVI 181338Z AUTO 00000KT 1SM BR OVC002 10/10 A3013 RMK AO2 T01000100
KWVI 181318Z AUTO 00000KT 1 3/4SM BR OVC003 10/10 A3012 RMK AO2 T01000100
KWVI 181253Z AUTO 00000KT 5SM BR OVC003 11/10 A3012 RMK AO2 SLP199 T01060100
KWVI 181227Z AUTO 00000KT 9SM OVC004 11/09 A3012 RMK AO2 T01060094
KWVI 181153Z AUTO 35003KT 10SM OVC005 11/09 A3011 RMK AO2 SLP196 T01110094 10139 20111 55000
KWVI 181124Z AUTO 34003KT 9SM OVC005 11/10 A3011 RMK AO2 T01110100
KWVI 181053Z AUTO 00000KT 9SM OVC006 12/10 A3010 RMK AO2 SLP193 T01170100
KWVI 180953Z AUTO 32003KT 10SM OVC008 12/10 A3012 RMK AO2 SLP197 T01170100
KWVI 180853Z AUTO 03003KT 9SM OVC008 13/11 A3011 RMK AO2 SLP196 T01280111 53001
KWVI 180753Z AUTO 00000KT 10SM OVC009 13/11 A3011 RMK AO2 SLP195 T01280111 402330050
KWVI 180705Z AUTO 11003KT 10SM OVC009 13/11 A3011 RMK AO2 T01330111
KWVI 180653Z AUTO 06003KT 10SM OVC010 13/11 A3011 RMK AO2 SLP194 T01330111
KWVI 180553Z AUTO 09004KT 10SM OVC010 14/12 A3011 RMK AO2 SLP195 T01390117 10150 20122 51007
KWVI 180453Z AUTO 06003KT 10SM OVC010 14/12 A3011 RMK AO2 SLP194 T01390117
KWVI 180438Z AUTO 00000KT 10SM OVC010 14/12 A3011 RMK AO2 T01390117
KWVI 180353Z AUTO 19003KT 10SM OVC009 14/12 A3010 RMK AO2 SLP191 T01390122
KWVI 180253Z AUTO 00000KT 9SM BKN007 13/12 A3009 RMK AO2 SLP187 T01330122 53010
KWVI 180239Z AUTO 00000KT 9SM SCT007 13/12 A3008 RMK AO2 T01280122
KWVI 180153Z AUTO 22003KT 10SM CLR 12/11 A3007 RMK AO2 SLP182 T01220111
KWVI 180053Z AUTO 22005KT 10SM CLR 15/12 A3005 RMK AO2 SLP177 T01500117
KWVI 172353Z AUTO 21006KT 10SM CLR 18/09 A3006 RMK AO2 SLP177 T01780089 10233 20161 56002
KWVI 172253Z AUTO VRB04KT 10SM CLR 19/08 A3006 RMK AO2 SLP178 T01890078
KWVI 172153Z AUTO 22007KT 10SM CLR 20/09 A3005 RMK AO2 SLP176 T02000089 $
KWVI 172053Z AUTO 21008KT 10SM CLR 23/08 A3006 RMK AO2 SLP179 T02280078 58017 $
KWVI 171953Z AUTO VRB04KT 10SM CLR 22/09 A3008 RMK AO2 SLP187 T02170094 $
No TAF found for KWVI

KSNS 181853Z 11004KT 9SM CLR 20/08 A3012 RMK AO2 SLP207 T02000078
KSNS 181753Z 14006KT 7SM CLR 16/09 A3013 RMK AO2 SLP212 T01610089 10161 20100 58001
KSNS 181653Z 13005KT 5SM HZ CLR 13/09 A3015 RMK AO2 SLP220 T01280089
KSNS 181639Z 12005KT 4SM HZ FEW008 12/09 A3015 RMK AO2 T01220094
KSNS 181553Z 09005KT 4SM BR OVC007 11/09 A3015 RMK AO2 SLP220 T01060089
KSNS 181453Z 10005KT 4SM BR OVC006 11/09 A3013 RMK AO2 SLP213 T01060089 53010
KSNS 181353Z 11005KT 5SM BR OVC007 11/09 A3012 RMK AO2 SLP208 T01060094
KSNS 181253Z AUTO VRB04KT 6SM BR OVC007 11/10 A3012 RMK AO2 SLP207 T01110100
KSNS 181153Z AUTO 10005KT 6SM BR OVC008 12/10 A3010 RMK AO2 SLP203 T01170100 10144 20117 55002
KSNS 181053Z AUTO 09005KT 6SM BR OVC008 12/11 A3010 RMK AO2 SLP201 T01220106
KSNS 180953Z AUTO 13007KT 6SM BR OVC009 13/11 A3011 RMK AO2 SLP203 T01280106
KSNS 180923Z AUTO 13007KT 6SM BR OVC009 13/11 A3011 RMK AO2 T01280106
KSNS 180853Z AUTO 14007KT 7SM OVC010 13/11 A3011 RMK AO2 SLP205 T01330111 53002
KSNS 180753Z AUTO 07003KT 7SM OVC011 13/11 A3011 RMK AO2 SLP204 T01330111 402390067
KSNS 180653Z AUTO 07004KT 8SM OVC011 13/11 A3010 RMK AO2 SLP201 T01330111
KSNS 180553Z AUTO 35003KT 8SM OVC011 14/12 A3010 RMK AO2 SLP202 T01440117 10178 20139 51007
KSNS 180453Z AUTO 32006KT 8SM OVC012 14/12 A3010 RMK AO2 SLP202 T01440117
KSNS 180353Z AUTO 31008KT 7SM OVC012 14/12 A3009 RMK AO2 SLP198 T01440117
KSNS 180253Z AUTO 32008KT 7SM OVC011 15/12 A3008 RMK AO2 SLP195 T01500122 53011
KSNS 180235Z AUTO 30008KT 7SM BKN011 15/12 A3008 RMK AO2 T01500122
KSNS 180153Z 33007KT 7SM CLR 15/12 A3006 RMK AO2 SLP188 T01500122
KSNS 180053Z 32009KT 7SM CLR 17/12 A3005 RMK AO2 SLP185 T01670122
KSNS 172353Z 31010KT 7SM CLR 18/12 A3005 RMK AO2 SLP184 T01780122 10239 20144 53000
KSNS 172253Z 30012KT 8SM CLR 19/11 A3005 RMK AO2 SLP184 T01890111
KSNS 172153Z 30012KT 9SM CLR 20/11 A3004 RMK AO2 SLP182 T02000106
KSNS 172053Z 32008KT 10SM CLR 24/06 A3005 RMK AO2 SLP184 T02390056 58020
KSNS 171953Z 00000KT 10SM CLR 22/04 A3008 RMK AO2 SLP193 T02170044

KSNS 181741Z 1818/1918 13005KT 5SM HZ SKC
  FM181900 29005KT P6SM SKC
  FM182200 29011KT P6SM SKC
  FM190300 31006KT P6SM BKN009
  FM190700 11005KT P6SM OVC007
  FM191700 12005KT P6SM FEW009


KMRY 181854Z 27006KT 7SM CLR 16/09 A3014 RMK AO2 SLP219 T01610089
KMRY 181754Z 00000KT 10SM CLR 14/08 A3014 RMK AO2 SLP216 T01440078 10144 20100 50000
KMRY 181654Z 12003KT 8SM SCT007 11/08 A3016 RMK AO2 SLP224 T01110078
KMRY 181637Z 01003KT 7SM OVC005 11/07 A3015 RMK AO2 T01060072
KMRY 181601Z 03004KT 5SM BR OVC004 10/08 A3016 RMK AO2 T01000078
KMRY 181554Z 35004KT 5SM BR OVC006 10/08 A3015 RMK AO2 SLP223 T01000078
KMRY 181454Z 08003KT 5SM BR OVC006 10/08 A3013 RMK AO2 SLP216 T01000078 53009
KMRY 181423Z 06003KT 5SM BR OVC005 10/08 A3013 RMK AO2 T01000078
KMRY 181354Z 10003KT 5SM BR OVC003 10/08 A3012 RMK AO2 SLP212 T01000078
KMRY 181254Z AUTO 08005KT 6SM BR OVC003 11/08 A3012 RMK AO2 SLP210 T01060083
KMRY 181234Z AUTO 05004KT 7SM OVC004 11/08 A3011 RMK AO2 T01060083
KMRY 181154Z AUTO 08004KT 8SM OVC006 11/09 A3011 RMK AO2 SLP207 T01110089 10139 20111 55002
KMRY 181108Z AUTO 09004KT 8SM OVC005 11/09 A3010 RMK AO2 T01110089
KMRY 181054Z AUTO 10005KT 8SM OVC004 11/09 A3010 RMK AO2 SLP205 T01110089
KMRY 181008Z AUTO 10004KT 8SM OVC004 12/09 A3011 RMK AO2 T01170089
KMRY 180954Z AUTO 00000KT 8SM OVC005 12/09 A3011 RMK AO2 SLP208 T01170094
KMRY 180854Z AUTO 09005KT 9SM OVC009 13/09 A3011 RMK AO2 SLP209 T01280094 53002
KMRY 180828Z AUTO 10006KT 9SM OVC009 13/09 A3011 RMK AO2 T01280094
KMRY 180754Z AUTO 08003KT 10SM OVC010 13/09 A3011 RMK AO2 SLP207 T01280094 402000083
KMRY 180654Z AUTO 00000KT 9SM OVC010 13/10 A3011 RMK AO2 SLP206 T01330100
KMRY 180554Z AUTO 10004KT 10SM OVC011 14/10 A3011 RMK AO2 SLP207 T01390100 10183 20139 50004
KMRY 180454Z AUTO 00000KT 10SM OVC011 14/11 A3011 RMK AO2 SLP208 T01440106
KMRY 180401Z AUTO VRB04KT 10SM OVC012 14/11 A3010 RMK AO2 T01440106
KMRY 180354Z AUTO 26004KT 10SM OVC008 14/11 A3010 RMK AO2 SLP205 T01440106
KMRY 180254Z 20004KT 9SM BKN009 14/11 A3009 RMK AO2 SLP202 T01440106 53011
KMRY 180236Z 21004KT 9SM BKN009 14/11 A3009 RMK AO2 T01440106
KMRY 180227Z 20005KT 9SM BKN010 14/11 A3009 RMK AO2 T01440106
KMRY 180154Z 24005KT 9SM FEW015 14/11 A3008 RMK AO2 SLP196 T01440106
KMRY 180054Z 24006KT 9SM CLR 16/11 A3006 RMK AO2 SLP192 T01610106
KMRY 172354Z 24007KT 10SM CLR 18/11 A3006 RMK AO2 SLP191 T01780111 10200 20144 56004
KMRY 172254Z 21007KT 10SM CLR 19/10 A3007 RMK AO2 SLP194 T01890100
KMRY 172154Z 28008KT 10SM CLR 19/11 A3007 RMK AO2 SLP193 T01890106
KMRY 172054Z VRB03KT 10SM CLR 19/11 A3007 RMK AO2 SLP196 T01890111 58014
KMRY 171954Z 28005KT 10SM CLR 17/10 A3010 RMK AO2 SLP203 T01670100

KMRY 181741Z 1818/1918 12003KT P6SM SCT007
  FM181930 27007KT P6SM SKC
  FM190300 11004KT P6SM BKN007
  FM191000 VRB03KT P6SM OVC006
  FM191700 VRB03KT P6SM FEW009


KSJC 181853Z 00000KT 6SM HZ FEW001 18/11 A3014 RMK AO2 SLP205 T01780106
KSJC 181753Z 33004KT 5SM HZ FEW001 SCT011 16/11 A3015 RMK AO2 SLP210 T01610106 10161 20106 50003
KSJC 181723Z 00000KT 5SM HZ FEW001 FEW008 SCT012 14/11 A3016 RMK AO2 T01440106
KSJC 181653Z 24003KT 4SM HZ FEW001 BKN008 BKN012 13/11 A3016 RMK AO2 SLP212 T01330106
KSJC 181553Z 00000KT 4SM HZ FEW001 BKN007 OVC011 13/11 A3016 RMK AO2 SLP213 T01330106
KSJC 181453Z 00000KT 4SM HZ FEW001 BKN007 OVC011 13/11 A3014 RMK AO2 SLP207 T01330106 53012
KSJC 181353Z 00000KT 10SM FEW001 BKN006 OVC009 13/08 A3013 RMK AO2 SLP203 T01280083
KSJC 181253Z 15003KT 10SM FEW001 BKN006 OVC009 12/08 A3012 RMK AO2 SLP198 T01170083
KSJC 181230Z 14003KT 10SM FEW001 BKN006 OVC009 11/07 A3012 RMK AO2 T01110072
KSJC 181210Z AUTO 00000KT 10SM BKN010 11/07 A3011 RMK AO2 T01060067
KSJC 181153Z AUTO 00000KT 10SM FEW013 11/07 A3011 RMK AO2 SLP195 T01060067 10144 20100 53001
KSJC 181053Z AUTO 14003KT 10SM CLR 11/07 A3010 RMK AO2 SLP192 T01060072
KSJC 180953Z AUTO 00000KT 10SM CLR 12/09 A3011 RMK AO2 SLP195 T01170089
KSJC 180853Z AUTO 20003KT 10SM CLR 12/09 A3011 RMK AO2 SLP194 T01220094 53004
KSJC 180753Z AUTO 00000KT 9SM CLR 13/11 A3010 RMK AO2 SLP192 T01330111 402440094
KSJC 180653Z 30003KT 9SM FEW016 13/11 A3010 RMK AO2 SLP190 LAST T01330106
KSJC 180553Z 00000KT 9SM CLR 14/11 A3009 RMK AO2 SLP190 T01390111 10222 20139 51011
KSJC 180453Z 33004KT 10SM CLR 15/12 A3009 RMK AO2 SLP188 T01500117
KSJC 180353Z 32006KT 10SM CLR 15/12 A3008 RMK AO2 SLP183 T01500117
KSJC 180253Z 32009KT 10SM CLR 16/12 A3006 RMK AO2 SLP179 T01610122 53014
KSJC 180153Z 32008KT 10SM CLR 18/12 A3004 RMK AO2 SLP171 T01780122
KSJC 180053Z 32009KT 10SM CLR 19/11 A3002 RMK AO2 SLP165 T01940111
KSJC 172353Z 33009KT 10SM CLR 22/09 A3002 RMK AO2 SLP165 T02220094 10244 20167 56009
KSJC 172253Z 32008KT 10SM CLR 23/05 A3003 RMK AO2 SLP167 T02330050
KSJC 172153Z 33007KT 10SM CLR 24/07 A3003 RMK AO2 SLP167 T02390072
KSJC 172053Z VRB03KT 10SM CLR 23/07 A3005 RMK AO2 SLP174 T02330072 58022
KSJC 171953Z 35004KT 10SM CLR 21/08 A3008 RMK AO2 SLP186 T02110083

KSJC 181737Z 1818/1918 00000KT 5SM HZ FEW001 FEW008 SCT012
  FM182100 32009KT P6SM SKC
  FM190400 VRB03KT P6SM SKC
  FM191200 VRB03KT P6SM BKN012
  FM191745 12004KT P6SM FEW015


KSFO 181856Z 00000KT 10SM CLR 16/11 A3014 RMK AO2 SLP207 T01610111
KSFO 181756Z 08004KT 10SM SCT010 14/11 A3015 RMK AO2 SLP209 T01440106 10144 20100 50004
KSFO 181656Z 10003KT 10SM OVC010 13/10 A3015 RMK AO2 SLP211 T01330100
KSFO 181556Z 16006KT 10SM OVC010 13/10 A3015 RMK AO2 SLP208 T01280100
KSFO 181456Z 16003KT 10SM OVC010 12/10 A3014 RMK AO2 SLP206 T01170100 51013
KSFO 181356Z 21005KT 10SM FEW010 BKN012 12/10 A3013 RMK AO2 SLP203 T01170100
KSFO 181256Z 24004KT 10SM FEW010 BKN012 10/08 A3012 RMK AO2 SLP198 T01000083
KSFO 181156Z 20004KT 10SM FEW200 10/08 A3010 RMK AO2 SLP193 T01000078 10122 20094 55001
KSFO 181056Z 24003KT 10SM FEW200 11/09 A3010 RMK AO2 SLP191 T01060089
KSFO 180956Z 27006KT 10SM FEW200 11/09 A3010 RMK AO2 SLP193 T01110089
KSFO 180856Z 28004KT 10SM FEW200 11/09 A3010 RMK AO2 SLP193 T01060089 51005
KSFO 180756Z 28007KT 10SM FEW200 12/09 A3010 RMK AO2 SLP192 T01170094 402060094
KSFO 180656Z 28009KT 10SM FEW009 12/09 A3009 RMK AO2 SLP190 T01170094
KSFO 180556Z 29009KT 10SM FEW009 11/09 A3009 RMK AO2 SLP188 T01110094 10161 20111 51010
KSFO 180456Z 29008KT 10SM FEW009 12/09 A3008 RMK AO2 SLP185 T01220094
KSFO 180356Z 29014KT 10SM FEW008 12/09 A3007 RMK AO2 SLP182 T01220094
KSFO 180256Z 29013KT 10SM FEW008 13/10 A3006 RMK AO2 SLP178 T01280100 53011
KSFO 180156Z 29016KT 10SM FEW008 13/10 A3004 RMK AO2 SLP172 T01280100
KSFO 180056Z 29018KT 10SM FEW008 14/10 A3003 RMK AO2 SLP168 T01440100
KSFO 172356Z 29017KT 10SM FEW008 16/11 A3002 RMK AO2 SLP167 T01610106 10200 20144 56012
KSFO 172256Z 30016KT 10SM FEW008 16/11 A3004 RMK AO2 SLP171 T01610106
KSFO 172156Z 29016KT 10SM FEW008 18/11 A3004 RMK AO2 SLP172 T01780106
KSFO 172056Z 30011KT 10SM FEW008 20/11 A3006 RMK AO2 SLP179 T02000111 56013
KSFO 171956Z 03003KT 10SM CLR 17/11 A3008 RMK AO2 SLP187 T01720111

KSFO 181736Z 1818/1924 10003KT P6SM OVC010
  FM181900 14004KT P6SM SCT012
  FM182100 30012KT P6SM SKC
  FM190400 29007KT P6SM FEW008
  FM191400 26005KT P6SM BKN010
  FM191830 28008KT P6SM SCT012
  FM192100 29011KT P6SM FEW015
  FM192230 29015KT P6SM SKC


No TAF found for KHAF